Blythe, California
Current Conditions -  °F | °C
As of 7:52 AM on Saturday 25 Oct 2014 (Local Time) from KBLH Reporting Station
Scattered Clouds Scattered Clouds  
Wind Chill: 70°   Ceiling: Unl
Heat Index: 70°   Visibility: 10mi
Dew Point: 44°   Wind: 3mph
Humidity: 39%   Direction: 320°NW
Pressure: 29.97"   Gusts: NA
Location:  33.61°N, 114.59°W
Report Text: KBLH 251452Z AUTO 32003KT 10SM SCT110 21/07 A2997 RMK AO2 SLP144 T02110067 $
Loading
Personal Weather Stations






























Interactive Weather Map
Tropical Storm Tracking
New forecast layout! Learn more

10-Day Weather Forecast

Advertisements
Track Severe Weather on mobile